createdAt,value
2023-01-17T00:01:33.160Z,2.17
2023-01-17T00:04:00.689Z,1.95
2023-01-17T00:06:27.599Z,2.20
2023-01-17T00:08:54.563Z,1.98
2023-01-17T00:11:21.465Z,1.90
2023-01-17T00:13:48.387Z,1.95
2023-01-17T00:16:16.372Z,2.20
2023-01-17T00:18:43.331Z,2.20
2023-01-17T00:21:10.241Z,1.88
2023-01-17T00:23:37.161Z,1.80
2023-01-17T00:26:04.135Z,1.88
2023-01-17T00:28:31.061Z,2.00
2023-01-17T00:30:58.004Z,1.83
2023-01-17T00:33:24.897Z,2.10
2023-01-17T00:35:51.901Z,2.17
2023-01-17T00:38:18.809Z,1.77
2023-01-17T00:40:45.741Z,2.03
2023-01-17T00:43:12.714Z,1.95
2023-01-17T00:45:39.904Z,2.00
2023-01-17T00:48:07.116Z,2.08
2023-01-17T00:50:34.105Z,2.00
2023-01-17T00:53:01.011Z,2.05
2023-01-17T00:55:28.038Z,1.83
2023-01-17T00:57:54.932Z,2.05
2023-01-17T01:00:21.901Z,1.65
2023-01-17T01:02:48.850Z,1.80
2023-01-17T01:05:15.891Z,1.80
2023-01-17T01:07:42.904Z,1.90
2023-01-17T01:10:10.349Z,1.52
2023-01-17T01:12:37.291Z,1.80
2023-01-17T01:15:07.988Z,1.65
2023-01-17T01:17:39.551Z,2.10
2023-01-17T01:20:06.758Z,1.92
2023-01-17T01:22:37.071Z,2.08
2023-01-17T01:25:08.734Z,1.93
2023-01-17T01:27:35.864Z,2.10
2023-01-17T01:30:02.809Z,2.15
2023-01-17T01:32:30.062Z,2.22
2023-01-17T01:34:57.072Z,2.00
2023-01-17T01:37:23.986Z,1.85
2023-01-17T01:39:50.920Z,2.20
2023-01-17T01:42:17.962Z,2.13
2023-01-17T01:44:44.874Z,1.77
2023-01-17T01:47:11.757Z,2.08
2023-01-17T01:49:38.683Z,2.10
2023-01-17T01:52:05.700Z,1.90
2023-01-17T01:54:32.629Z,1.90
2023-01-17T01:56:59.611Z,2.08
2023-01-17T01:59:26.908Z,1.80
2023-01-17T02:01:53.925Z,2.03
2023-01-17T02:04:21.116Z,2.20
2023-01-17T02:06:48.043Z,1.88
2023-01-17T02:09:15.055Z,2.22
2023-01-17T02:11:41.965Z,1.90
2023-01-17T02:14:08.910Z,2.00
2023-01-17T02:16:36.157Z,2.30
2023-01-17T02:19:03.070Z,1.95
2023-01-17T02:21:29.991Z,2.17
2023-01-17T02:23:56.882Z,2.00
2023-01-17T02:26:24.112Z,2.30
2023-01-17T02:28:51.011Z,2.15
2023-01-17T02:31:17.935Z,1.90
2023-01-17T02:33:45.188Z,2.40
2023-01-17T02:36:12.172Z,2.10
2023-01-17T02:38:39.145Z,2.05
2023-01-17T02:41:06.061Z,2.20
2023-01-17T02:43:33.165Z,2.08
2023-01-17T02:46:00.217Z,2.20
2023-01-17T02:48:27.316Z,1.90
2023-01-17T02:50:54.965Z,2.03
2023-01-17T02:53:22.220Z,1.95
2023-01-17T02:55:49.169Z,2.70
2023-01-17T02:58:16.119Z,2.20
2023-01-17T03:00:43.553Z,2.00
2023-01-17T03:03:10.474Z,2.20
2023-01-17T03:05:37.689Z,2.00
2023-01-17T03:08:04.683Z,2.00
2023-01-17T03:10:31.992Z,2.00
2023-01-17T03:12:59.056Z,2.00
2023-01-17T03:15:26.164Z,2.20
2023-01-17T03:17:53.451Z,2.00
2023-01-17T03:20:22.566Z,1.90
2023-01-17T03:22:49.768Z,2.10
2023-01-17T03:25:16.712Z,2.10
2023-01-17T03:27:43.664Z,2.13
2023-01-17T03:30:10.656Z,2.15
2023-01-17T03:32:37.559Z,2.20
2023-01-17T03:35:04.462Z,2.20
2023-01-17T03:37:31.369Z,2.35
2023-01-17T03:39:58.307Z,2.35
2023-01-17T03:42:26.247Z,2.38
2023-01-17T03:44:53.162Z,2.10
2023-01-17T03:47:20.084Z,2.22
2023-01-17T03:49:46.989Z,2.17
2023-01-17T03:52:13.918Z,2.10
2023-01-17T03:54:40.824Z,2.17
2023-01-17T03:57:07.741Z,2.10
2023-01-17T03:59:34.810Z,2.10
2023-01-17T04:02:01.813Z,2.20
2023-01-17T04:04:28.951Z,1.90
2023-01-17T04:06:55.849Z,2.30
2023-01-17T04:09:22.797Z,2.40
2023-01-17T04:11:49.704Z,2.30
2023-01-17T04:14:16.609Z,2.42
2023-01-17T04:16:43.639Z,2.40
2023-01-17T04:19:10.612Z,2.42
2023-01-17T04:21:37.525Z,2.42
2023-01-17T04:24:04.440Z,2.53
2023-01-17T04:26:31.337Z,2.53
2023-01-17T04:28:58.262Z,2.20
2023-01-17T04:31:25.243Z,2.45
2023-01-17T04:33:52.183Z,2.45
2023-01-17T04:36:19.116Z,2.55
2023-01-17T04:38:46.014Z,2.30
2023-01-17T04:41:12.949Z,2.60
2023-01-17T04:43:39.857Z,2.55
2023-01-17T04:46:06.843Z,2.60
2023-01-17T04:48:33.745Z,2.45
2023-01-17T04:51:00.917Z,2.78
2023-01-17T04:53:28.008Z,2.95
2023-01-17T04:55:54.907Z,2.97
2023-01-17T04:58:21.810Z,2.65
2023-01-17T05:00:48.746Z,3.08
2023-01-17T05:03:15.694Z,3.00
2023-01-17T05:05:42.732Z,3.20
2023-01-17T05:08:09.674Z,3.35
2023-01-17T05:10:36.698Z,3.22
2023-01-17T05:13:03.595Z,3.28
2023-01-17T05:15:30.540Z,3.33
2023-01-17T05:17:57.493Z,3.30
2023-01-17T05:20:24.423Z,3.47
2023-01-17T05:22:51.392Z,3.58
2023-01-17T05:25:18.343Z,4.07
2023-01-17T05:27:45.258Z,3.63
2023-01-17T05:30:12.188Z,4.40
2023-01-17T05:32:39.090Z,4.05
2023-01-17T05:35:06.006Z,4.10
2023-01-17T05:37:33.110Z,4.72
2023-01-17T05:40:00.047Z,4.32
2023-01-17T05:42:29.342Z,4.10
2023-01-17T05:44:56.254Z,4.50
2023-01-17T05:47:23.152Z,4.57
2023-01-17T05:49:50.071Z,4.22
2023-01-17T05:52:16.966Z,3.70
2023-01-17T05:54:43.908Z,3.58
2023-01-17T05:57:10.861Z,3.20
2023-01-17T05:59:37.809Z,3.00
2023-01-17T06:02:04.764Z,2.83
2023-01-17T06:04:31.733Z,2.50
2023-01-17T06:06:58.681Z,2.10
2023-01-17T06:09:25.590Z,2.30
2023-01-17T06:11:52.491Z,2.10
2023-01-17T06:14:19.457Z,1.92
2023-01-17T06:16:46.418Z,1.90
2023-01-17T06:19:13.326Z,1.98
2023-01-17T06:21:40.257Z,1.92
2023-01-17T06:26:51.167Z,1.98
2023-01-17T06:29:18.067Z,1.88
2023-01-17T06:31:44.975Z,1.67
2023-01-17T06:34:11.867Z,1.85
2023-01-17T06:36:38.767Z,1.67
2023-01-17T06:39:05.659Z,1.83
2023-01-17T06:41:32.562Z,1.95
2023-01-17T06:43:59.467Z,1.98
2023-01-17T06:46:26.420Z,2.45
2023-01-17T06:48:53.582Z,2.10
2023-01-17T06:51:20.516Z,2.00
2023-01-17T06:53:47.414Z,2.25
2023-01-17T06:56:14.331Z,2.30
2023-01-17T06:58:41.223Z,2.35
2023-01-17T07:01:08.256Z,2.42
2023-01-17T07:03:35.209Z,2.75
2023-01-17T07:06:02.170Z,2.60
2023-01-17T07:08:29.240Z,2.40
2023-01-17T07:10:56.157Z,2.55
2023-01-17T07:13:23.136Z,2.00
2023-01-17T07:15:50.089Z,2.20
2023-01-17T07:18:17.018Z,1.88
2023-01-17T07:20:43.983Z,1.77
2023-01-17T07:23:10.939Z,1.60
2023-01-17T07:25:47.087Z,1.60
2023-01-17T07:28:14.148Z,1.38
2023-01-17T07:30:41.143Z,1.30
2023-01-17T07:33:14.118Z,1.50
2023-01-17T07:35:53.766Z,1.30
2023-01-17T07:38:20.685Z,0.88
2023-01-17T07:40:47.635Z,0.82
2023-01-17T07:43:25.220Z,1.08
2023-01-17T07:45:52.126Z,0.82
2023-01-17T07:48:19.039Z,0.65
2023-01-17T07:50:47.055Z,1.00
2023-01-17T07:53:13.953Z,0.90
2023-01-17T07:55:40.851Z,0.80
2023-01-17T07:58:07.771Z,0.55
2023-01-17T08:00:34.675Z,0.73
2023-01-17T08:03:01.822Z,0.80
2023-01-17T08:05:28.826Z,0.90
2023-01-17T08:07:55.852Z,1.20
2023-01-17T08:10:22.749Z,0.80
2023-01-17T08:12:49.668Z,1.10
2023-01-17T08:15:16.569Z,0.90
2023-01-17T08:17:43.503Z,0.80
2023-01-17T08:20:10.395Z,0.90
2023-01-17T08:22:37.284Z,0.90
2023-01-17T08:25:04.195Z,1.52
2023-01-17T08:27:31.096Z,0.90
2023-01-17T08:29:57.976Z,1.23
2023-01-17T08:32:24.910Z,1.17
2023-01-17T08:34:51.822Z,1.30
2023-01-17T08:37:18.733Z,1.30
2023-01-17T08:39:45.672Z,1.08
2023-01-17T08:42:12.590Z,0.82
2023-01-17T08:44:39.569Z,1.30
2023-01-17T08:47:06.528Z,1.45
2023-01-17T08:49:33.442Z,1.25
2023-01-17T08:52:00.346Z,1.55
2023-01-17T08:54:27.244Z,1.55
2023-01-17T08:56:54.851Z,1.30
2023-01-17T08:59:21.752Z,1.48
2023-01-17T09:01:48.770Z,1.80
2023-01-17T09:04:15.759Z,1.75
2023-01-17T09:06:42.713Z,1.65
2023-01-17T09:09:09.636Z,1.67
2023-01-17T09:11:36.547Z,1.70
2023-01-17T09:14:03.428Z,1.85
2023-01-17T09:16:30.386Z,1.60
2023-01-17T09:18:57.317Z,1.83
2023-01-17T09:21:24.207Z,1.70
2023-01-17T09:23:51.170Z,1.45
2023-01-17T09:26:18.066Z,1.70
2023-01-17T09:28:44.979Z,1.98
2023-01-17T09:31:12.077Z,1.50
2023-01-17T09:33:39.071Z,1.80
2023-01-17T09:36:05.995Z,1.65
2023-01-17T09:38:32.967Z,1.83
2023-01-17T09:40:59.939Z,2.03
2023-01-17T09:43:26.890Z,2.17
2023-01-17T09:45:53.819Z,1.58
2023-01-17T09:48:20.745Z,1.80
2023-01-17T09:50:47.669Z,1.80
2023-01-17T09:53:14.592Z,1.90
2023-01-17T09:55:41.554Z,2.13
2023-01-17T09:58:08.484Z,1.70
2023-01-17T10:00:35.436Z,1.90
2023-01-17T10:03:02.433Z,1.67
2023-01-17T10:05:29.384Z,2.10
2023-01-17T10:07:56.324Z,1.85
2023-01-17T10:10:23.232Z,1.48
2023-01-17T10:12:50.227Z,1.50
2023-01-17T10:15:17.171Z,1.60
2023-01-17T10:17:44.133Z,1.63
2023-01-17T10:20:11.080Z,1.65
2023-01-17T10:22:38.043Z,1.80
2023-01-17T10:25:04.973Z,1.60
2023-01-17T10:27:31.904Z,1.60
2023-01-17T10:29:58.817Z,1.80
2023-01-17T10:32:26.065Z,1.67
2023-01-17T10:34:53.281Z,1.90
2023-01-17T10:37:20.246Z,1.70
2023-01-17T10:39:47.178Z,1.55
2023-01-17T10:42:14.105Z,2.00
2023-01-17T10:44:41.046Z,1.70
2023-01-17T10:47:07.988Z,1.70
2023-01-17T10:49:35.089Z,1.98
2023-01-17T10:52:03.202Z,1.88
2023-01-17T10:54:30.150Z,1.48
2023-01-17T10:56:57.064Z,1.48
2023-01-17T10:59:23.987Z,1.40
2023-01-17T11:01:51.899Z,1.30
2023-01-17T11:04:18.897Z,1.00
2023-01-17T11:06:57.602Z,1.70
2023-01-17T11:09:25.429Z,1.33
2023-01-17T11:11:52.555Z,1.42
2023-01-17T11:14:19.505Z,1.55
2023-01-17T11:16:47.483Z,1.30
2023-01-17T11:19:14.481Z,1.40
2023-01-17T11:21:41.403Z,1.52
2023-01-17T11:24:08.633Z,1.70
2023-01-17T11:26:35.601Z,1.33
2023-01-17T11:29:03.185Z,1.48
2023-01-17T11:31:30.237Z,1.70
2023-01-17T11:33:57.171Z,1.50
2023-01-17T11:36:24.091Z,1.52
2023-01-17T11:38:51.151Z,1.38
2023-01-17T11:41:18.090Z,1.75
2023-01-17T11:43:45.019Z,1.50
2023-01-17T11:46:12.069Z,1.90
2023-01-17T11:48:39.035Z,1.73
2023-01-17T11:51:05.961Z,1.88
2023-01-17T11:53:32.947Z,1.60
2023-01-17T11:55:59.868Z,1.50
2023-01-17T11:58:26.833Z,1.88
2023-01-17T12:00:53.780Z,1.40
2023-01-17T12:03:20.729Z,1.92
2023-01-17T12:05:47.638Z,1.40
2023-01-17T12:08:14.616Z,1.67
2023-01-17T12:10:41.563Z,1.55
2023-01-17T12:13:08.497Z,1.30
2023-01-17T12:15:35.494Z,1.23
2023-01-17T12:18:02.435Z,1.40
2023-01-17T12:20:29.356Z,1.50
2023-01-17T12:22:56.317Z,1.60
2023-01-17T12:25:25.635Z,1.20
2023-01-17T12:27:52.590Z,1.13
2023-01-17T12:30:19.546Z,1.20
2023-01-17T12:32:46.465Z,1.40
2023-01-17T12:35:13.369Z,1.50
2023-01-17T12:37:40.368Z,1.45
2023-01-17T12:40:07.518Z,1.65
2023-01-17T12:42:34.473Z,1.58
2023-01-17T12:45:01.375Z,1.50
2023-01-17T12:47:28.319Z,1.38
2023-01-17T12:49:55.257Z,1.23
2023-01-17T12:52:22.178Z,1.27
2023-01-17T12:54:49.130Z,1.73
2023-01-17T12:57:16.081Z,1.50
2023-01-17T12:59:43.008Z,1.35
2023-01-17T13:02:09.967Z,1.40
2023-01-17T13:04:41.989Z,1.50
2023-01-17T13:07:13.881Z,1.08
2023-01-17T13:09:40.795Z,1.33
2023-01-17T13:12:07.736Z,1.42
2023-01-17T13:14:34.739Z,1.48
2023-01-17T13:17:01.636Z,1.23
2023-01-17T13:19:28.674Z,1.20
2023-01-17T13:21:55.657Z,1.17
2023-01-17T13:24:22.673Z,1.20
2023-01-17T13:26:52.808Z,1.38
2023-01-17T13:29:19.869Z,1.65
2023-01-17T13:31:46.945Z,1.45
2023-01-17T13:34:14.333Z,2.00
2023-01-17T13:36:41.351Z,1.80
2023-01-17T13:39:08.910Z,1.60
2023-01-17T13:47:19.305Z,1.30
2023-01-17T13:49:46.248Z,1.13
2023-01-17T13:52:14.401Z,1.15
2023-01-17T13:57:22.860Z,1.40
2023-01-17T13:59:49.778Z,1.33
2023-01-17T14:02:19.866Z,1.50
2023-01-17T14:04:46.831Z,1.17
2023-01-17T14:09:57.516Z,1.65
2023-01-17T14:15:05.252Z,1.50
2023-01-17T14:17:32.150Z,1.08
2023-01-17T14:19:59.095Z,1.17
2023-01-17T14:22:28.470Z,1.10
2023-01-17T14:24:55.366Z,1.15
2023-01-17T14:27:22.265Z,0.93
2023-01-17T14:29:49.259Z,1.08
2023-01-17T14:32:16.176Z,1.30
2023-01-17T14:34:43.108Z,1.58
2023-01-17T14:37:10.095Z,1.25
2023-01-17T14:39:37.032Z,1.23
2023-01-17T14:42:03.956Z,1.10
2023-01-17T14:44:33.410Z,0.90
2023-01-17T14:47:01.133Z,1.55
2023-01-17T14:49:28.060Z,1.52
2023-01-17T14:51:55.018Z,1.63
2023-01-17T14:59:40.252Z,1.80
2023-01-17T15:02:08.765Z,1.80
2023-01-17T15:04:35.849Z,1.33
2023-01-17T15:07:02.768Z,1.30
2023-01-17T15:09:29.785Z,1.30
2023-01-17T15:11:56.780Z,1.42
2023-01-17T15:14:23.698Z,1.20
2023-01-17T15:16:50.636Z,1.17
2023-01-17T15:19:17.549Z,1.60
2023-01-17T15:21:44.470Z,1.50
2023-01-17T15:24:11.436Z,1.90
2023-01-17T15:26:38.350Z,1.75
2023-01-17T15:29:05.303Z,1.65
2023-01-17T15:31:32.207Z,1.58
2023-01-17T15:33:59.104Z,1.80
2023-01-17T15:36:27.076Z,1.45
2023-01-17T15:41:45.498Z,1.70
2023-01-17T15:44:12.435Z,1.27
2023-01-17T15:46:39.356Z,1.52
2023-01-17T15:49:06.290Z,1.50
2023-01-17T15:51:33.199Z,1.55
2023-01-17T15:54:00.186Z,1.50
2023-01-17T15:56:27.126Z,1.27
2023-01-17T15:58:54.061Z,1.33
2023-01-17T16:01:21.271Z,1.75
2023-01-17T16:03:48.243Z,1.60
2023-01-17T16:06:15.197Z,1.70
2023-01-17T16:08:43.324Z,1.35
2023-01-17T16:11:10.356Z,1.70
2023-01-17T16:13:37.290Z,1.70
2023-01-17T16:16:04.312Z,1.80
2023-01-17T16:18:31.288Z,1.67
2023-01-17T16:20:58.222Z,1.95
2023-01-17T16:23:25.145Z,1.65
2023-01-17T16:25:55.042Z,1.88
2023-01-17T16:28:21.978Z,1.70
2023-01-17T16:30:49.006Z,1.90
2023-01-17T16:33:15.995Z,1.80
2023-01-17T16:35:43.000Z,1.88
2023-01-17T16:38:09.974Z,1.83
2023-01-17T16:40:36.939Z,1.80
2023-01-17T16:43:03.871Z,1.90
2023-01-17T16:45:30.819Z,1.80
2023-01-17T16:47:57.752Z,1.90
2023-01-17T16:50:24.748Z,1.98
2023-01-17T16:52:51.697Z,2.20
2023-01-17T16:55:18.655Z,1.90
2023-01-17T16:57:45.624Z,1.77
2023-01-17T17:00:12.576Z,2.47
2023-01-17T17:02:39.530Z,1.70
2023-01-17T17:05:06.535Z,1.80
2023-01-17T17:07:33.449Z,1.95
2023-01-17T17:10:00.377Z,2.65
2023-01-17T17:12:27.295Z,1.83
2023-01-17T17:14:54.243Z,2.10
2023-01-17T17:17:21.151Z,1.85
2023-01-17T17:19:48.209Z,2.03
2023-01-17T17:22:15.144Z,1.85
2023-01-17T17:24:42.114Z,1.77
2023-01-17T17:27:09.097Z,2.00
2023-01-17T17:29:36.138Z,1.98
2023-01-17T17:32:03.064Z,2.00
2023-01-17T17:34:29.980Z,2.60
2023-01-17T17:36:56.899Z,2.28
2023-01-17T17:39:23.816Z,2.20
2023-01-17T17:41:50.733Z,2.17
2023-01-17T17:44:17.680Z,2.30
2023-01-17T17:46:44.652Z,2.45
2023-01-17T17:49:11.608Z,2.42
2023-01-17T17:51:42.125Z,2.38
2023-01-17T17:54:09.037Z,2.05
2023-01-17T17:56:35.985Z,2.03
2023-01-17T17:59:02.923Z,2.20
2023-01-17T18:01:29.976Z,2.20
2023-01-17T18:03:57.070Z,2.50
2023-01-17T18:06:24.008Z,2.33
2023-01-17T18:08:50.928Z,2.83
2023-01-17T18:11:17.868Z,2.67
2023-01-17T18:13:44.786Z,2.70
2023-01-17T18:16:11.761Z,2.55
2023-01-17T18:18:38.697Z,2.65
2023-01-17T18:21:05.657Z,3.00
2023-01-17T18:23:32.660Z,3.17
2023-01-17T18:25:59.585Z,3.67
2023-01-17T18:28:26.503Z,3.10
2023-01-17T18:30:53.418Z,3.13
2023-01-17T18:33:20.316Z,3.08
2023-01-17T18:35:47.255Z,3.13
2023-01-17T18:38:14.208Z,2.85
2023-01-17T18:40:41.270Z,3.25
2023-01-17T18:43:08.255Z,3.05
2023-01-17T18:45:35.168Z,2.97
2023-01-17T18:56:24.444Z,3.45
2023-01-17T18:57:20.684Z,3.13
2023-01-17T18:58:51.364Z,2.92
2023-01-17T19:01:18.478Z,3.25
2023-01-17T19:03:45.475Z,4.10
2023-01-17T19:12:13.277Z,3.70
2023-01-17T19:14:38.560Z,3.65
2023-01-17T19:17:05.478Z,3.85
2023-01-17T19:19:32.414Z,3.60
2023-01-17T19:30:50.119Z,4.63
2023-01-17T19:33:07.584Z,3.50
2023-01-17T19:35:34.511Z,3.88
2023-01-17T19:38:09.082Z,4.45
2023-01-17T19:40:36.092Z,3.80
2023-01-17T19:43:03.191Z,4.05
2023-01-17T19:45:30.153Z,4.32
2023-01-17T19:47:57.584Z,4.78
2023-01-17T19:50:24.702Z,3.85
2023-01-17T19:52:53.178Z,5.10
2023-01-17T19:55:20.195Z,4.38
2023-01-17T19:57:47.111Z,4.13
2023-01-17T20:00:14.059Z,4.70
2023-01-17T20:02:41.124Z,4.88
2023-01-17T20:05:14.253Z,4.47
2023-01-17T20:07:41.181Z,4.80
2023-01-17T20:10:08.931Z,4.53
2023-01-17T20:12:36.031Z,4.38
2023-01-17T20:15:03.200Z,4.45
2023-01-17T20:17:34.588Z,5.60
2023-01-17T20:20:01.701Z,5.57
2023-01-17T20:22:28.615Z,4.97
2023-01-17T20:24:55.517Z,5.00
2023-01-17T20:27:22.447Z,4.75
2023-01-17T20:29:49.400Z,5.22
2023-01-17T20:32:16.317Z,4.78
2023-01-17T20:34:45.524Z,4.82
2023-01-17T20:37:12.601Z,5.43
2023-01-17T20:39:39.584Z,5.45
2023-01-17T20:42:06.507Z,5.22
2023-01-17T20:44:33.392Z,5.43
2023-01-17T20:47:00.335Z,5.00
2023-01-17T20:49:27.396Z,5.47
2023-01-17T20:51:54.396Z,5.55
2023-01-17T20:54:21.545Z,5.85
2023-01-17T20:56:48.534Z,5.82
2023-01-17T20:59:16.036Z,5.25
2023-01-17T21:01:46.695Z,5.60
2023-01-17T21:04:15.993Z,5.88
2023-01-17T21:06:43.187Z,5.53
2023-01-17T21:09:10.595Z,6.07
2023-01-17T21:11:38.550Z,5.95
2023-01-17T21:14:05.932Z,5.60
2023-01-17T21:16:33.038Z,5.90
2023-01-17T21:19:00.605Z,5.72
2023-01-17T21:21:30.143Z,5.18
2023-01-17T21:23:57.137Z,5.50
2023-01-17T21:26:24.607Z,5.63
2023-01-17T21:28:51.820Z,5.60
2023-01-17T21:31:20.704Z,5.97
2023-01-17T21:33:47.987Z,5.85
2023-01-17T21:36:15.020Z,5.88
2023-01-17T21:38:41.991Z,5.47
2023-01-17T21:41:08.991Z,5.28
2023-01-17T21:43:36.065Z,5.53
2023-01-17T21:46:03.246Z,6.25
2023-01-17T21:48:30.268Z,6.30
2023-01-17T21:50:57.396Z,5.65
2023-01-17T21:53:24.692Z,5.50
2023-01-17T21:55:52.074Z,5.55
2023-01-17T21:58:19.560Z,6.60
2023-01-17T22:00:48.013Z,6.00
2023-01-17T22:03:15.082Z,6.47
2023-01-17T22:05:42.658Z,5.63
2023-01-17T22:08:10.394Z,5.88
2023-01-17T22:10:37.574Z,6.40
2023-01-17T22:13:04.589Z,6.20
2023-01-17T22:15:33.131Z,6.30
2023-01-17T22:18:00.519Z,5.75
2023-01-17T22:20:28.127Z,5.90
2023-01-17T22:22:55.323Z,5.60
2023-01-17T22:25:23.325Z,6.97
2023-01-17T22:27:50.351Z,6.13
2023-01-17T22:30:17.245Z,6.57
2023-01-17T22:32:44.155Z,6.35
2023-01-17T22:35:23.762Z,6.28
2023-01-17T22:37:51.015Z,7.85
2023-01-17T22:43:03.931Z,6.85
2023-01-17T22:48:18.556Z,6.43
2023-01-17T22:50:51.890Z,6.70
2023-01-17T22:53:20.295Z,6.65
2023-01-17T22:55:58.982Z,7.00
2023-01-17T22:58:26.372Z,7.90
2023-01-17T23:00:56.237Z,6.80
2023-01-17T23:03:23.203Z,7.30
2023-01-17T23:05:50.170Z,6.70
2023-01-17T23:08:17.081Z,7.25
2023-01-17T23:10:44.082Z,6.60
2023-01-17T23:13:11.001Z,7.25
2023-01-17T23:15:37.932Z,7.63
2023-01-17T23:18:04.945Z,7.35
2023-01-17T23:20:31.919Z,6.72
2023-01-17T23:22:59.167Z,8.52
2023-01-17T23:25:26.300Z,9.43
2023-01-17T23:27:53.232Z,9.45
2023-01-17T23:30:20.150Z,7.78
2023-01-17T23:32:47.078Z,8.57
2023-01-17T23:35:13.979Z,7.97
2023-01-17T23:37:40.925Z,8.68
2023-01-17T23:40:07.827Z,7.93
2023-01-17T23:42:34.807Z,7.97
2023-01-17T23:45:01.723Z,8.35
2023-01-17T23:47:31.144Z,9.40
2023-01-17T23:49:58.179Z,8.75
2023-01-17T23:52:25.806Z,8.63
2023-01-17T23:54:53.327Z,8.25
2023-01-17T23:57:20.236Z,8.30
2023-01-17T23:59:47.125Z,8.25
